Time;durP1;ratioP1;P1;durP2;ratioP2;P2;SDS_P1;SDS_P2;PMS_P1;PMS_P2;Temp;Humidity;BMP_temperature;BMP_pressure;BME280_temperature;BME280_humidity;BME280_pressure;Samples;Min_cycle;Max_cycle;Signal;HPM_P1;HPM_P2
2023/05/13 00:01:17;;;;;;;8.75;5.38;;;17.20;80.60;;;;;;5134566;28;20051;-77
2023/05/13 00:03:42;;;;;;;7.60;5.70;;;17.20;80.60;;;;;;5134552;28;20036;-77
2023/05/13 00:06:08;;;;;;;10.13;5.53;;;17.20;80.40;;;;;;5134415;28;20046;-77
2023/05/13 00:08:34;;;;;;;6.53;5.25;;;17.20;80.50;;;;;;5134171;28;20087;-77
2023/05/13 00:10:59;;;;;;;8.48;5.20;;;17.20;80.70;;;;;;5134438;28;20027;-77
2023/05/13 00:13:25;;;;;;;8.63;5.18;;;17.10;80.60;;;;;;5134363;28;20041;-77
2023/05/13 00:15:51;;;;;;;6.75;5.10;;;17.10;80.50;;;;;;5134495;28;20020;-77
2023/05/13 00:18:17;;;;;;;7.40;5.13;;;17.10;80.40;;;;;;5133431;28;20027;-77
2023/05/13 00:20:42;;;;;;;6.72;5.35;;;17.10;80.50;;;;;;5134416;28;20027;-77
2023/05/13 00:23:08;;;;;;;6.50;5.32;;;17.10;80.60;;;;;;5134247;28;20032;-76
2023/05/13 00:25:34;;;;;;;7.65;5.50;;;17.10;80.50;;;;;;5133211;28;20024;-77
2023/05/13 00:28:00;;;;;;;6.93;5.18;;;17.10;80.20;;;;;;5133169;28;20028;-77
2023/05/13 00:30:26;;;;;;;6.70;4.88;;;17.10;80.10;;;;;;5133079;28;20035;-77
2023/05/13 00:32:51;;;;;;;7.90;5.38;;;17.10;79.90;;;;;;5134117;28;20027;-77
2023/05/13 00:35:17;;;;;;;6.82;4.75;;;17.00;79.70;;;;;;5115691;28;20028;-77
2023/05/13 00:37:43;;;;;;;6.70;4.80;;;17.00;79.80;;;;;;5133567;28;20027;-77
2023/05/13 00:40:23;;;;;;;9.60;4.75;;;17.00;79.70;;;;;;5133102;28;20048;-77
2023/05/13 00:42:49;;;;;;;9.13;5.20;;;17.00;79.60;;;;;;5133959;28;20471;-77
2023/05/13 00:45:15;;;;;;;8.23;5.35;;;17.00;79.40;;;;;;5133865;28;20023;-78
2023/05/13 00:47:41;;;;;;;8.40;5.40;;;17.00;79.30;;;;;;5134049;28;20075;-77
2023/05/13 00:50:10;;;;;;;7.30;6.13;;;16.90;79.30;;;;;;5133892;28;20030;-77
2023/05/13 00:52:38;;;;;;;6.88;5.72;;;16.90;79.20;;;;;;5133964;28;20043;-77
2023/05/13 00:55:04;;;;;;;8.90;5.70;;;16.90;79.60;;;;;;5133852;28;20023;-77
2023/05/13 00:57:30;;;;;;;7.63;6.03;;;16.80;79.70;;;;;;5133984;28;20028;-77
2023/05/13 00:59:56;;;;;;;8.02;5.93;;;16.80;80.20;;;;;;5133845;28;20028;-77
2023/05/13 01:02:31;;;;;;;7.93;5.70;;;16.70;80.50;;;;;;5133824;28;20031;-77
2023/05/13 01:05:11;;;;;;;7.95;5.72;;;16.70;80.60;;;;;;5133754;28;20024;-77
2023/05/13 01:07:52;;;;;;;6.85;5.60;;;16.70;80.50;;;;;;5133731;28;20024;-77
2023/05/13 01:10:26;;;;;;;8.80;6.20;;;16.70;80.30;;;;;;5133561;28;20060;-78
2023/05/13 01:13:00;;;;;;;6.88;5.72;;;16.60;80.30;;;;;;5133888;28;20020;-77
2023/05/13 01:15:27;;;;;;;9.57;6.00;;;16.60;79.90;;;;;;5133848;28;20106;-77
2023/05/13 01:18:05;;;;;;;8.70;6.07;;;16.60;79.90;;;;;;5133634;28;20093;-77
2023/05/13 01:20:32;;;;;;;8.82;6.10;;;16.50;79.60;;;;;;5133824;28;20020;-77
2023/05/13 01:22:57;;;;;;;8.48;5.65;;;16.50;79.50;;;;;;5133576;28;20028;-77
2023/05/13 01:25:24;;;;;;;8.70;6.10;;;16.50;79.40;;;;;;5132601;28;20036;-77
2023/05/13 01:27:51;;;;;;;9.55;5.55;;;16.50;79.60;;;;;;5133602;28;20026;-77
2023/05/13 01:30:17;;;;;;;7.47;5.43;;;16.40;79.90;;;;;;5133512;28;20020;-77
2023/05/13 01:32:43;;;;;;;7.03;5.65;;;16.40;80.00;;;;;;5133534;28;20028;-78
2023/05/13 01:35:10;;;;;;;7.43;5.40;;;16.40;79.90;;;;;;5132389;28;20035;-77
2023/05/13 01:37:36;;;;;;;9.00;5.63;;;16.30;80.20;;;;;;5132508;28;20020;-77
2023/05/13 01:40:02;;;;;;;8.35;5.68;;;16.30;80.00;;;;;;5133462;28;20045;-77
2023/05/13 01:42:28;;;;;;;7.03;5.60;;;16.30;79.50;;;;;;5132488;28;20033;-77
2023/05/13 01:44:54;;;;;;;9.20;6.32;;;16.30;79.40;;;;;;5133487;28;20028;-77
2023/05/13 01:47:20;;;;;;;9.95;5.70;;;16.30;79.30;;;;;;5134277;28;20016;-77
2023/05/13 01:49:45;;;;;;;8.48;6.13;;;16.30;79.50;;;;;;5136099;28;20555;-77
2023/05/13 01:52:11;;;;;;;7.78;5.75;;;16.20;79.60;;;;;;5137150;28;20016;-77
2023/05/13 01:54:37;;;;;;;9.70;6.40;;;16.10;80.20;;;;;;5137072;28;20031;-77
2023/05/13 01:57:03;;;;;;;7.03;5.75;;;16.00;80.30;;;;;;5137038;28;20024;-77
2023/05/13 01:59:28;;;;;;;9.25;6.20;;;16.00;80.60;;;;;;5136996;28;20031;-77
2023/05/13 02:01:54;;;;;;;9.43;6.30;;;15.90;80.60;;;;;;5136935;28;20035;-77
2023/05/13 02:04:20;;;;;;;9.63;6.55;;;15.90;80.70;;;;;;5136777;28;20023;-77
2023/05/13 02:06:46;;;;;;;8.75;6.20;;;15.90;80.80;;;;;;5136877;28;20042;-77
2023/05/13 02:09:12;;;;;;;14.63;6.35;;;15.90;80.70;;;;;;5135539;28;20051;-77
2023/05/13 02:11:38;;;;;;;9.23;6.28;;;15.90;81.20;;;;;;5136768;28;20034;-77
2023/05/13 02:14:04;;;;;;;10.77;6.50;;;15.90;81.10;;;;;;5135807;28;20028;-77
2023/05/13 02:16:30;;;;;;;8.80;6.32;;;15.80;81.20;;;;;;5136642;28;20049;-77
2023/05/13 02:18:56;;;;;;;8.93;6.03;;;15.80;81.10;;;;;;5136766;28;20024;-77
2023/05/13 02:21:21;;;;;;;8.48;6.43;;;15.80;81.20;;;;;;5136567;28;20027;-77
2023/05/13 02:23:47;;;;;;;8.88;6.30;;;15.80;80.90;;;;;;5136457;28;20360;-77
2023/05/13 02:26:13;;;;;;;8.65;6.22;;;15.80;81.00;;;;;;5136395;28;20053;-77
2023/05/13 02:28:38;;;;;;;10.40;5.85;;;15.70;80.20;;;;;;5135483;28;20031;-77
2023/05/13 02:31:04;;;;;;;11.55;6.22;;;15.70;80.30;;;;;;5136370;28;20053;-77
2023/05/13 02:33:29;;;;;;;8.30;6.13;;;15.60;80.70;;;;;;5135335;28;20027;-77
2023/05/13 02:35:55;;;;;;;8.82;6.13;;;15.60;80.90;;;;;;5136264;28;20055;-77
2023/05/13 02:38:21;;;;;;;8.80;6.28;;;15.60;80.70;;;;;;5136224;28;20115;-77
2023/05/13 02:40:47;;;;;;;8.00;6.10;;;15.60;80.80;;;;;;5135341;28;20079;-77
2023/05/13 02:43:12;;;;;;;9.52;6.30;;;15.60;80.60;;;;;;5136099;28;20091;-77
2023/05/13 02:45:40;;;;;;;8.45;6.45;;;15.50;80.60;;;;;;5136009;28;20035;-77
2023/05/13 02:48:05;;;;;;;10.02;6.40;;;15.50;80.60;;;;;;5136079;28;20042;-77
2023/05/13 02:50:31;;;;;;;9.15;6.20;;;15.40;80.40;;;;;;5135973;28;20020;-77
2023/05/13 02:52:57;;;;;;;7.60;6.07;;;15.40;80.30;;;;;;5135955;28;20032;-77
2023/05/13 02:55:22;;;;;;;8.48;6.88;;;15.40;80.40;;;;;;5135913;28;20035;-77
2023/05/13 02:57:48;;;;;;;9.73;6.05;;;15.40;80.40;;;;;;5135835;28;20038;-77
2023/05/13 03:00:14;;;;;;;8.25;5.97;;;15.30;80.40;;;;;;5134808;28;20031;-77
2023/05/13 03:02:40;;;;;;;13.82;6.55;;;15.30;80.30;;;;;;5135930;28;20085;-77
2023/05/13 03:05:06;;;;;;;8.65;6.18;;;15.30;80.30;;;;;;5135604;28;20087;-77
2023/05/13 03:07:32;;;;;;;8.30;6.60;;;15.20;80.40;;;;;;5134620;28;20032;-77
2023/05/13 03:09:58;;;;;;;9.57;6.63;;;15.20;80.90;;;;;;5135458;28;20048;-77
2023/05/13 03:12:23;;;;;;;9.82;6.93;;;15.20;81.20;;;;;;5135556;28;20035;-77
2023/05/13 03:14:49;;;;;;;9.93;7.13;;;15.10;81.10;;;;;;5135537;28;20027;-77
2023/05/13 03:17:15;;;;;;;12.45;7.78;;;15.10;81.10;;;;;;5117576;28;20050;-77
2023/05/13 03:19:41;;;;;;;8.60;6.53;;;15.10;81.30;;;;;;5135424;28;20372;-77
2023/05/13 03:22:06;;;;;;;10.30;7.15;;;15.10;81.20;;;;;;5117372;28;20061;-77
2023/05/13 03:24:32;;;;;;;10.23;7.22;;;15.10;81.50;;;;;;5135212;28;20020;-77
2023/05/13 03:26:58;;;;;;;9.95;7.18;;;15.00;81.80;;;;;;5135281;28;20126;-77
2023/05/13 03:29:24;;;;;;;13.82;6.97;;;15.00;81.80;;;;;;5135352;28;20087;-77
2023/05/13 03:31:51;;;;;;;8.63;6.65;;;15.00;82.00;;;;;;5135128;28;20034;-77
2023/05/13 03:34:17;;;;;;;10.50;6.80;;;15.00;82.00;;;;;;5134073;28;20061;-77
2023/05/13 03:36:42;;;;;;;9.00;6.57;;;15.00;82.10;;;;;;5135090;28;20027;-77
2023/05/13 03:39:09;;;;;;;9.32;6.93;;;15.00;82.10;;;;;;5134988;28;20028;-77
2023/05/13 03:41:35;;;;;;;10.57;6.32;;;15.00;81.90;;;;;;5135021;28;20110;-77
2023/05/13 03:44:01;;;;;;;9.85;6.53;;;15.00;81.70;;;;;;5134959;28;20386;-77
2023/05/13 03:46:27;;;;;;;8.45;6.95;;;15.00;82.10;;;;;;5134790;28;20034;-77
2023/05/13 03:48:54;;;;;;;12.48;6.93;;;15.00;82.20;;;;;;5134925;28;20083;-77
2023/05/13 03:51:20;;;;;;;8.80;6.55;;;15.00;82.00;;;;;;5134790;28;20022;-77
2023/05/13 03:53:46;;;;;;;10.80;7.15;;;14.90;82.00;;;;;;5134737;28;20024;-77
2023/05/13 03:56:12;;;;;;;8.43;6.50;;;15.00;81.80;;;;;;5133816;28;20117;-77
2023/05/13 03:58:37;;;;;;;9.85;6.85;;;14.90;81.90;;;;;;5134637;28;20032;-77
2023/05/13 04:01:03;;;;;;;10.57;6.80;;;14.90;81.70;;;;;;5134567;28;20032;-77
2023/05/13 04:03:30;;;;;;;9.52;6.80;;;14.90;82.00;;;;;;5134592;28;20045;-77
2023/05/13 04:05:55;;;;;;;10.35;7.85;;;14.90;82.10;;;;;;5134427;28;20080;-77
2023/05/13 04:08:21;;;;;;;9.90;7.20;;;14.90;82.10;;;;;;5134303;28;20040;-77
2023/05/13 04:10:47;;;;;;;12.30;7.68;;;14.80;82.30;;;;;;5133380;28;20515;-77
2023/05/13 04:13:12;;;;;;;10.55;7.70;;;14.80;82.50;;;;;;5134388;28;20026;-77
2023/05/13 04:15:38;;;;;;;11.20;7.95;;;14.80;82.60;;;;;;5134387;28;20031;-77
2023/05/13 04:18:04;;;;;;;14.75;7.53;;;14.80;82.70;;;;;;5133545;28;20027;-77
2023/05/13 04:20:29;;;;;;;11.82;7.57;;;14.80;82.80;;;;;;5134278;28;20034;-77
2023/05/13 04:22:55;;;;;;;12.75;7.65;;;14.70;83.00;;;;;;5134289;28;20032;-77
2023/05/13 04:25:20;;;;;;;10.95;7.80;;;14.80;82.90;;;;;;5134169;28;20035;-77
2023/05/13 04:27:46;;;;;;;10.25;7.13;;;14.80;82.90;;;;;;5134184;28;20027;-77
2023/05/13 04:30:12;;;;;;;10.80;7.50;;;14.80;82.90;;;;;;5134191;28;20031;-77
2023/05/13 04:32:38;;;;;;;10.98;7.60;;;14.80;82.70;;;;;;5134149;28;20023;-77
2023/05/13 04:35:06;;;;;;;10.18;7.30;;;14.70;82.70;;;;;;5132931;28;20015;-76
2023/05/13 04:37:31;;;;;;;11.10;7.97;;;14.70;82.90;;;;;;5116258;28;20055;-77
2023/05/13 04:39:57;;;;;;;10.88;7.82;;;14.70;82.90;;;;;;5134050;28;20031;-77
2023/05/13 04:42:23;;;;;;;12.27;7.78;;;14.70;82.90;;;;;;5133086;28;20433;-77
2023/05/13 04:44:48;;;;;;;9.25;7.22;;;14.70;82.90;;;;;;5133916;28;20020;-77
2023/05/13 04:47:14;;;;;;;8.55;7.07;;;14.80;82.90;;;;;;5133071;28;20035;-77
2023/05/13 04:49:40;;;;;;;9.90;7.88;;;14.80;82.80;;;;;;5132990;28;20090;-77
2023/05/13 04:52:06;;;;;;;11.25;7.55;;;14.80;82.70;;;;;;5132940;28;20022;-77
2023/05/13 04:54:34;;;;;;;13.45;7.80;;;14.80;82.60;;;;;;5133994;28;20024;-76
2023/05/13 04:57:00;;;;;;;12.13;7.78;;;14.80;82.70;;;;;;5133820;28;20040;-77
2023/05/13 04:59:26;;;;;;;10.43;7.22;;;14.70;82.70;;;;;;5133790;28;20023;-76
2023/05/13 05:01:52;;;;;;;11.85;7.55;;;14.70;82.90;;;;;;5133800;28;20023;-76
2023/05/13 05:04:17;;;;;;;12.70;7.70;;;14.70;84.00;;;;;;5133715;28;20024;-76
2023/05/13 05:06:43;;;;;;;12.38;7.28;;;14.70;83.10;;;;;;5133804;28;20031;-76
2023/05/13 05:09:08;;;;;;;11.93;7.80;;;14.70;83.30;;;;;;5133529;28;20056;-76
2023/05/13 05:11:34;;;;;;;10.85;8.48;;;14.70;83.40;;;;;;5132942;28;20028;-76
2023/05/13 05:14:00;;;;;;;10.73;8.07;;;14.70;83.60;;;;;;5133688;28;20019;-76
2023/05/13 05:16:26;;;;;;;12.15;8.00;;;14.70;83.40;;;;;;5133652;28;20039;-77
2023/05/13 05:18:51;;;;;;;10.70;7.88;;;14.70;83.40;;;;;;5133544;28;20035;-77
2023/05/13 05:21:17;;;;;;;12.85;8.07;;;14.70;83.50;;;;;;5133633;28;20043;-76
2023/05/13 05:23:43;;;;;;;10.55;7.57;;;14.70;83.60;;;;;;5136880;28;20023;-76
2023/05/13 05:26:08;;;;;;;11.40;7.90;;;14.70;83.60;;;;;;5137581;28;20032;-77
2023/05/13 05:28:35;;;;;;;10.60;7.97;;;14.70;83.80;;;;;;5137561;28;20024;-76
2023/05/13 05:31:01;;;;;;;10.27;7.78;;;14.80;83.80;;;;;;5137566;28;20087;-76
2023/05/13 05:33:27;;;;;;;11.07;7.55;;;14.80;84.00;;;;;;5137474;28;20419;-76
2023/05/13 05:35:53;;;;;;;11.32;8.13;;;14.80;84.30;;;;;;5137419;28;20028;-76
2023/05/13 05:38:18;;;;;;;10.27;7.80;;;14.70;84.40;;;;;;5137405;28;20028;-77
2023/05/13 05:40:45;;;;;;;10.93;7.78;;;14.70;84.20;;;;;;5136405;28;20031;-77
2023/05/13 05:43:11;;;;;;;11.00;7.78;;;14.80;84.20;;;;;;5136413;28;20016;-77
2023/05/13 05:45:37;;;;;;;12.45;7.75;;;14.80;84.30;;;;;;5137225;28;20034;-77
2023/05/13 05:48:03;;;;;;;13.73;8.40;;;14.80;84.40;;;;;;5137213;28;20049;-77
2023/05/13 05:50:30;;;;;;;12.93;8.73;;;14.90;84.60;;;;;;5137311;28;20078;-78
2023/05/13 05:52:56;;;;;;;13.52;8.13;;;14.90;84.60;;;;;;5136143;28;20020;-78
2023/05/13 05:55:21;;;;;;;12.57;8.35;;;14.90;84.50;;;;;;5119002;28;20020;-80
2023/05/13 05:57:47;;;;;;;10.32;7.78;;;14.90;84.60;;;;;;5136019;28;20031;-79
2023/05/13 06:00:13;;;;;;;10.13;8.00;;;15.00;84.60;;;;;;5136983;28;20031;-80
2023/05/13 06:02:40;;;;;;;12.05;8.20;;;15.00;84.50;;;;;;5136912;28;20386;-79
2023/05/13 06:05:06;;;;;;;14.48;8.15;;;15.00;84.70;;;;;;5118571;28;20028;-79
2023/05/13 06:07:32;;;;;;;10.50;7.90;;;15.10;84.90;;;;;;5118800;28;20042;-79
2023/05/13 06:09:57;;;;;;;13.77;8.15;;;15.10;85.00;;;;;;5118560;28;20071;-78
2023/05/13 06:12:23;;;;;;;10.50;8.13;;;15.10;84.80;;;;;;5135758;28;20397;-79
2023/05/13 06:14:49;;;;;;;10.57;8.23;;;15.10;84.70;;;;;;5135806;28;20051;-77
2023/05/13 06:17:15;;;;;;;12.85;7.97;;;15.10;84.60;;;;;;5135738;28;20032;-76
2023/05/13 06:19:41;;;;;;;10.85;8.52;;;15.10;84.80;;;;;;5118698;28;20027;-78
2023/05/13 06:22:10;;;;;;;13.85;8.65;;;15.10;84.90;;;;;;5118638;28;20035;-78
2023/05/13 06:24:37;;;;;;;12.38;8.52;;;15.10;85.10;;;;;;5135391;28;20028;-78
2023/05/13 06:27:04;;;;;;;12.93;8.52;;;15.10;85.10;;;;;;5136455;28;20039;-80
2023/05/13 06:29:29;;;;;;;16.38;8.63;;;15.20;85.40;;;;;;5118405;28;20050;-80
2023/05/13 06:31:55;;;;;;;15.93;8.82;;;15.20;85.60;;;;;;5135485;28;20047;-79
2023/05/13 06:34:21;;;;;;;13.60;9.15;;;15.20;85.50;;;;;;5135145;28;20043;-79
2023/05/13 06:36:47;;;;;;;12.80;8.80;;;15.20;85.60;;;;;;5136189;28;20498;-77
2023/05/13 06:39:12;;;;;;;15.65;9.13;;;15.30;85.60;;;;;;5118320;28;20039;-77
2023/05/13 06:41:39;;;;;;;12.15;9.18;;;15.30;85.60;;;;;;5117980;28;20118;-77
2023/05/13 06:44:05;;;;;;;13.93;9.75;;;15.30;85.60;;;;;;5135045;28;20020;-77
2023/05/13 06:46:31;;;;;;;11.93;8.93;;;15.40;85.60;;;;;;5135999;28;20027;-77
2023/05/13 06:48:57;;;;;;;14.52;9.20;;;15.50;85.70;;;;;;5135079;28;20106;-77
2023/05/13 06:51:25;;;;;;;14.95;9.90;;;15.50;85.70;;;;;;5135220;28;20090;-77
2023/05/13 06:53:51;;;;;;;11.85;9.43;;;15.60;85.80;;;;;;5135943;28;20020;-76
2023/05/13 06:56:17;;;;;;;12.50;9.43;;;15.60;85.90;;;;;;5136013;28;20054;-77
2023/05/13 06:58:42;;;;;;;13.27;9.18;;;15.70;85.90;;;;;;5100855;28;20031;-78
2023/05/13 07:01:08;;;;;;;14.77;9.60;;;15.70;85.90;;;;;;5134776;28;20027;-77
2023/05/13 07:03:33;;;;;;;13.32;9.40;;;15.70;86.00;;;;;;5117737;28;20032;-77
2023/05/13 07:05:59;;;;;;;14.48;10.20;;;15.80;86.30;;;;;;5117759;28;20039;-77
2023/05/13 07:08:25;;;;;;;14.18;9.70;;;15.90;86.50;;;;;;5117503;28;20040;-77
2023/05/13 07:10:51;;;;;;;18.80;10.30;;;15.90;86.00;;;;;;5135748;28;20019;-77
2023/05/13 07:13:18;;;;;;;13.73;9.77;;;15.90;85.50;;;;;;5135577;28;20034;-77
2023/05/13 07:15:46;;;;;;;12.93;10.05;;;15.90;85.50;;;;;;5135516;28;20036;-77
2023/05/13 07:18:11;;;;;;;12.77;9.50;;;16.00;85.80;;;;;;5135456;27;20045;-77
2023/05/13 07:20:37;;;;;;;12.77;9.32;;;16.00;85.80;;;;;;5134487;28;20028;-77
2023/05/13 07:23:02;;;;;;;14.80;10.07;;;16.10;85.60;;;;;;5117488;28;20091;-77
2023/05/13 07:25:28;;;;;;;13.55;9.57;;;16.20;85.80;;;;;;5134218;28;20046;-77
2023/05/13 07:27:54;;;;;;;12.90;9.50;;;16.30;86.10;;;;;;5117316;28;20028;-77
2023/05/13 07:30:20;;;;;;;14.38;9.85;;;16.30;85.40;;;;;;5135244;28;20020;-77
2023/05/13 07:32:45;;;;;;;13.73;9.63;;;16.40;85.10;;;;;;5117381;28;20110;-77
2023/05/13 07:35:11;;;;;;;14.07;9.38;;;16.50;84.90;;;;;;5134178;28;20035;-77
2023/05/13 07:37:37;;;;;;;14.23;10.45;;;16.50;84.40;;;;;;5134105;28;20023;-77
2023/05/13 07:40:04;;;;;;;13.85;9.95;;;16.50;84.30;;;;;;5135091;28;20045;-77
2023/05/13 07:42:30;;;;;;;14.38;9.68;;;16.60;84.40;;;;;;5134095;28;20057;-77
2023/05/13 07:44:56;;;;;;;15.15;10.73;;;16.60;84.40;;;;;;5116357;28;20047;-77
2023/05/13 07:47:22;;;;;;;13.13;9.50;;;16.70;84.60;;;;;;5133948;28;20028;-78
2023/05/13 07:49:48;;;;;;;12.85;9.90;;;16.80;85.10;;;;;;5117073;28;20026;-78
2023/05/13 07:52:14;;;;;;;13.32;9.35;;;16.80;84.60;;;;;;5133765;28;20015;-78
2023/05/13 07:54:39;;;;;;;16.65;10.25;;;16.90;84.00;;;;;;5116782;28;20034;-77
2023/05/13 07:57:05;;;;;;;12.93;8.80;;;17.00;83.80;;;;;;5133812;28;20053;-77
2023/05/13 07:59:31;;;;;;;13.07;9.52;;;17.00;83.70;;;;;;5133772;28;20024;-78
2023/05/13 08:01:57;;;;;;;13.13;9.50;;;17.10;84.10;;;;;;5134648;28;20031;-78
2023/05/13 08:04:22;;;;;;;18.48;10.60;;;17.20;84.40;;;;;;5116542;28;20031;-78
2023/05/13 08:06:48;;;;;;;12.48;9.95;;;17.20;84.30;;;;;;5133610;28;20034;-77
2023/05/13 08:09:14;;;;;;;13.98;9.43;;;17.30;83.60;;;;;;5134394;28;20099;-77
2023/05/13 08:11:39;;;;;;;12.60;9.30;;;17.40;83.50;;;;;;5133582;28;20039;-78
2023/05/13 08:14:05;;;;;;;11.65;8.80;;;17.40;83.60;;;;;;5099597;28;20446;-78
2023/05/13 08:16:33;;;;;;;14.00;9.50;;;17.50;82.90;;;;;;5116425;28;20095;-78
2023/05/13 08:18:59;;;;;;;11.80;9.15;;;17.50;83.10;;;;;;5133305;28;20019;-78
2023/05/13 08:21:24;;;;;;;12.93;9.65;;;17.60;82.50;;;;;;5133380;28;20043;-78
2023/05/13 08:23:51;;;;;;;14.27;9.45;;;17.70;83.30;;;;;;5099479;28;20118;-78
2023/05/13 08:26:17;;;;;;;13.68;8.82;;;17.80;84.60;;;;;;5099502;28;20028;-77
2023/05/13 08:28:43;;;;;;;11.82;8.55;;;17.90;84.00;;;;;;5116203;28;20028;-78
2023/05/13 08:31:12;;;;;;;12.20;9.02;;;17.90;83.10;;;;;;5133089;28;20061;-78
2023/05/13 08:33:40;;;;;;;12.95;8.63;;;18.00;82.70;;;;;;5133344;28;20046;-78
2023/05/13 08:36:06;;;;;;;13.77;9.00;;;18.10;82.00;;;;;;5134129;28;20083;-78
2023/05/13 08:38:32;;;;;;;13.50;9.27;;;18.10;81.50;;;;;;5133035;28;20095;-78
2023/05/13 08:40:58;;;;;;;14.48;9.32;;;18.20;81.10;;;;;;5133109;28;20058;-78
2023/05/13 08:43:27;;;;;;;13.07;8.85;;;18.20;81.10;;;;;;5133137;28;20055;-78
2023/05/13 08:45:55;;;;;;;12.77;8.18;;;18.30;81.60;;;;;;5133758;28;20022;-77
2023/05/13 08:48:23;;;;;;;14.20;8.48;;;18.40;81.40;;;;;;5133920;28;20052;-78
2023/05/13 08:50:49;;;;;;;12.43;8.43;;;18.40;81.20;;;;;;5132900;28;20020;-78
2023/05/13 08:53:16;;;;;;;10.75;8.68;;;18.50;81.30;;;;;;5132942;28;20045;-78
2023/05/13 08:55:41;;;;;;;10.98;8.35;;;18.60;81.30;;;;;;5133847;28;20023;-78
2023/05/13 08:58:07;;;;;;;13.75;9.68;;;18.70;81.00;;;;;;5101401;28;20028;-78
2023/05/13 09:00:36;;;;;;;12.73;8.75;;;18.80;81.40;;;;;;5137290;28;20038;-78
2023/05/13 09:03:02;;;;;;;13.23;8.63;;;18.90;81.40;;;;;;5137265;28;20030;-78
2023/05/13 09:05:28;;;;;;;13.30;8.30;;;19.00;81.30;;;;;;5138015;28;20024;-78
2023/05/13 09:07:53;;;;;;;12.85;8.85;;;19.10;80.80;;;;;;5137124;28;20020;-78
2023/05/13 09:10:19;;;;;;;12.85;8.95;;;19.10;80.30;;;;;;5137852;28;20052;-79
2023/05/13 09:12:52;;;;;;;11.88;8.43;;;19.20;79.80;;;;;;5136902;28;20028;-78
2023/05/13 09:15:25;;;;;;;10.45;7.90;;;19.30;79.60;;;;;;5137952;28;20019;-78
2023/05/13 09:17:55;;;;;;;13.85;7.80;;;19.30;79.10;;;;;;5137051;28;20022;-79
2023/05/13 09:20:21;;;;;;;10.25;7.75;;;19.40;79.80;;;;;;5137783;28;20039;-79
2023/05/13 09:22:49;;;;;;;10.25;8.30;;;19.60;79.80;;;;;;5119640;28;20087;-78
2023/05/13 09:25:16;;;;;;;13.43;8.35;;;19.60;78.30;;;;;;5137580;28;20045;-78
2023/05/13 09:27:44;;;;;;;11.98;7.88;;;19.60;77.90;;;;;;5119775;28;20024;-78
2023/05/13 09:30:11;;;;;;;11.30;8.00;;;19.70;77.60;;;;;;5137602;28;20028;-78
2023/05/13 09:32:38;;;;;;;10.07;7.43;;;19.80;77.50;;;;;;5136783;28;20039;-78
2023/05/13 09:35:15;;;;;;;9.85;7.15;;;19.90;77.70;;;;;;5137465;28;20106;-78
2023/05/13 09:37:45;;;;;;;8.50;6.50;;;20.00;78.10;;;;;;5136473;28;20027;-78
2023/05/13 09:40:15;;;;;;;10.43;6.53;;;20.10;78.30;;;;;;5137435;28;20027;-79
2023/05/13 09:42:43;;;;;;;9.27;6.93;;;20.20;76.90;;;;;;5136510;28;20031;-78
2023/05/13 09:45:10;;;;;;;7.60;6.40;;;20.30;76.60;;;;;;5119358;28;20055;-78
2023/05/13 09:47:36;;;;;;;9.45;6.70;;;20.50;76.80;;;;;;5136298;28;20031;-78
2023/05/13 09:50:03;;;;;;;10.05;6.65;;;20.50;76.80;;;;;;5137209;28;20378;-79
2023/05/13 09:52:33;;;;;;;10.65;6.28;;;20.70;75.40;;;;;;5137138;28;20024;-80
2023/05/13 09:54:59;;;;;;;8.48;6.18;;;20.70;75.10;;;;;;5137242;28;20057;-79
2023/05/13 09:57:29;;;;;;;7.63;6.03;;;20.80;74.80;;;;;;5135996;28;20024;-78
2023/05/13 10:00:00;;;;;;;8.55;5.90;;;20.90;76.50;;;;;;5137118;28;20024;-78
2023/05/13 10:02:27;;;;;;;8.68;6.07;;;21.10;74.60;;;;;;5136993;28;20087;-78
2023/05/13 10:04:57;;;;;;;9.93;5.57;;;21.10;73.00;;;;;;5135844;28;20023;-78
2023/05/13 10:07:24;;;;;;;6.47;5.32;;;21.20;74.20;;;;;;5119483;28;20015;-78
2023/05/13 10:10:09;;;;;;;8.43;5.78;;;21.30;73.80;;;;;;5136205;28;20118;-78
2023/05/13 10:12:36;;;;;;;9.20;5.60;;;21.40;72.90;;;;;;5136796;28;20027;-78
2023/05/13 10:15:04;;;;;;;8.57;5.43;;;21.50;72.90;;;;;;5135751;28;20027;-80
2023/05/13 10:17:31;;;;;;;10.70;5.68;;;21.60;71.00;;;;;;5136719;28;20075;-79
2023/05/13 10:19:57;;;;;;;6.40;4.93;;;21.60;70.80;;;;;;5135655;28;20045;-79
2023/05/13 10:22:29;;;;;;;9.32;5.00;;;21.70;70.10;;;;;;5135670;28;20023;-80
2023/05/13 10:24:57;;;;;;;6.28;4.75;;;21.70;68.80;;;;;;5136524;28;20034;-80
2023/05/13 10:27:27;;;;;;;7.80;5.50;;;21.80;68.40;;;;;;5136498;28;20023;-79
2023/05/13 10:29:54;;;;;;;7.55;5.10;;;21.90;69.90;;;;;;5118577;28;20047;-80
2023/05/13 10:32:26;;;;;;;6.88;5.60;;;22.00;70.40;;;;;;5136406;28;20016;-80
2023/05/13 10:35:06;;;;;;;6.57;5.47;;;22.10;68.90;;;;;;5135299;28;20042;-79
2023/05/13 10:37:34;;;;;;;7.03;5.00;;;22.10;68.40;;;;;;5135332;28;20116;-80
2023/05/13 10:40:22;;;;;;;8.00;4.90;;;22.00;68.00;;;;;;5136221;28;20023;-80
2023/05/13 10:43:14;;;;;;;6.55;5.03;;;22.10;66.40;;;;;;5135240;28;20402;-81
2023/05/13 10:45:44;;;;;;;6.30;5.40;;;22.10;66.40;;;;;;5136253;28;20105;-80
2023/05/13 10:48:14;;;;;;;8.30;5.05;;;22.10;66.40;;;;;;5136136;28;20023;-81
2023/05/13 10:50:59;;;;;;;7.75;5.28;;;22.20;65.50;;;;;;5135043;28;20042;-81
2023/05/13 10:53:29;;;;;;;6.07;4.78;;;22.20;66.60;;;;;;5134913;28;20012;-81
2023/05/13 10:55:56;;;;;;;8.48;5.22;;;22.30;66.00;;;;;;5134889;28;20023;-82
2023/05/13 10:58:31;;;;;;;7.40;5.13;;;22.40;66.00;;;;;;5118120;28;20048;-81
2023/05/13 11:01:16;;;;;;;5.50;4.72;;;22.40;65.90;;;;;;5134915;28;20020;-82
2023/05/13 11:03:53;;;;;;;6.40;4.70;;;22.60;65.30;;;;;;5135797;28;20045;-81
2023/05/13 11:06:23;;;;;;;7.22;5.40;;;22.60;65.90;;;;;;5134634;28;20023;-81
2023/05/13 11:08:50;;;;;;;7.70;4.70;;;22.70;65.90;;;;;;5134447;28;20047;-81
2023/05/13 11:11:29;;;;;;;7.40;4.93;;;22.70;66.40;;;;;;5135666;28;20049;-81
2023/05/13 11:14:02;;;;;;;10.27;5.47;;;22.80;65.60;;;;;;5135675;28;20020;-81
2023/05/13 11:16:28;;;;;;;7.35;4.63;;;22.90;64.80;;;;;;5134659;28;20043;-82
2023/05/13 11:18:53;;;;;;;7.93;5.43;;;22.90;64.50;;;;;;5134460;28;20084;-82
2023/05/13 11:21:38;;;;;;;7.10;5.13;;;23.00;65.00;;;;;;5134581;28;20032;-82
2023/05/13 11:24:05;;;;;;;5.78;4.75;;;23.00;64.60;;;;;;5135269;28;20015;-82
2023/05/13 11:26:56;;;;;;;6.15;4.45;;;23.10;63.00;;;;;;5117331;28;20032;-82
2023/05/13 11:29:34;;;;;;;6.60;4.53;;;23.10;63.10;;;;;;5134143;28;20019;-82
2023/05/13 11:32:01;;;;;;;5.93;4.80;;;23.10;62.30;;;;;;5135237;28;20028;-83
2023/05/13 11:34:28;;;;;;;7.22;4.68;;;23.20;62.60;;;;;;5133967;28;20019;-83
2023/05/13 11:37:03;;;;;;;5.65;4.25;;;23.20;62.30;;;;;;5134102;28;20041;-83
2023/05/13 11:39:29;;;;;;;6.15;4.28;;;23.30;59.50;;;;;;5134047;28;20032;-83
2023/05/13 11:42:00;;;;;;;6.13;4.47;;;23.30;60.20;;;;;;5135009;28;20031;-82
2023/05/13 11:44:26;;;;;;;4.70;3.78;;;23.40;59.40;;;;;;5133975;28;20053;-81
2023/05/13 11:46:55;;;;;;;6.50;4.13;;;23.40;61.10;;;;;;5134874;28;20020;-81
2023/05/13 11:49:31;;;;;;;4.85;3.83;;;23.50;61.60;;;;;;5133857;28;20020;-81
2023/05/13 11:51:59;;;;;;;5.65;4.35;;;23.60;61.00;;;;;;5133840;28;20035;-81
2023/05/13 11:54:24;;;;;;;4.95;3.40;;;23.60;57.30;;;;;;5133788;28;20061;-81
2023/05/13 11:56:50;;;;;;;4.32;3.65;;;23.70;58.50;;;;;;5133721;28;20023;-80
2023/05/13 11:59:16;;;;;;;5.25;3.78;;;23.70;54.60;;;;;;5116815;28;20036;-81
2023/05/13 12:01:41;;;;;;;6.20;4.20;;;23.70;56.10;;;;;;5134657;28;20083;-81
2023/05/13 12:04:07;;;;;;;4.70;3.85;;;23.80;56.60;;;;;;5133729;28;20036;-81
2023/05/13 12:06:33;;;;;;;5.07;3.70;;;23.90;58.00;;;;;;5133404;28;20027;-81
2023/05/13 12:09:06;;;;;;;4.63;4.00;;;23.90;55.90;;;;;;5133378;28;20067;-80
2023/05/13 12:11:33;;;;;;;6.22;4.35;;;23.90;52.50;;;;;;5134401;28;20044;-81
2023/05/13 12:13:59;;;;;;;5.05;4.30;;;24.00;53.30;;;;;;5116420;28;20099;-81
2023/05/13 12:16:25;;;;;;;5.80;4.07;;;24.00;55.40;;;;;;5134407;28;20532;-81
2023/05/13 12:18:58;;;;;;;6.85;4.97;;;24.10;56.30;;;;;;5133547;28;20087;-81
2023/05/13 12:21:23;;;;;;;6.93;4.07;;;24.20;55.40;;;;;;5133272;28;20027;-80
2023/05/13 12:23:49;;;;;;;5.00;4.20;;;24.20;55.60;;;;;;5134201;28;20110;-81
2023/05/13 12:26:14;;;;;;;5.28;3.92;;;24.30;57.10;;;;;;5134190;28;20065;-81
2023/05/13 12:28:40;;;;;;;6.72;3.72;;;24.30;54.20;;;;;;5133307;28;20482;-80
2023/05/13 12:31:15;;;;;;;5.40;3.80;;;24.40;54.10;;;;;;5133111;28;20016;-80
2023/05/13 12:33:43;;;;;;;5.25;3.78;;;24.50;54.10;;;;;;5134131;28;20079;-79
2023/05/13 12:36:24;;;;;;;6.15;3.60;;;24.50;53.80;;;;;;5134120;28;20032;-79
2023/05/13 12:39:04;;;;;;;5.95;3.75;;;24.60;54.40;;;;;;5134136;28;20072;-81
2023/05/13 12:41:34;;;;;;;6.70;3.80;;;24.60;49.80;;;;;;5134211;28;20026;-81